createdAt,value
2022-11-13T00:01:18.004Z,20.77
2022-11-13T00:03:56.358Z,17.77
2022-11-13T00:06:27.618Z,18.03
2022-11-13T00:08:57.612Z,13.40
2022-11-13T00:11:28.144Z,16.00
2022-11-13T00:13:56.525Z,19.33
2022-11-13T00:16:26.509Z,22.97
2022-11-13T00:19:19.360Z,17.03
2022-11-13T00:21:48.054Z,12.43
2022-11-13T00:24:16.666Z,15.97
2022-11-13T00:30:01.213Z,12.80
2022-11-13T00:32:31.844Z,18.37
2022-11-13T00:35:05.575Z,20.00
2022-11-13T00:37:38.512Z,17.00
2022-11-13T00:40:20.239Z,17.57
2022-11-13T00:43:02.564Z,19.27
2022-11-13T00:45:31.912Z,17.87
2022-11-13T00:54:06.395Z,11.97
2022-11-13T00:59:40.343Z,9.20
2022-11-13T01:02:10.783Z,11.17
2022-11-13T01:04:39.786Z,11.40
2022-11-13T01:07:11.724Z,9.57
2022-11-13T01:09:54.661Z,21.57
2022-11-13T01:21:28.467Z,13.50
2022-11-13T01:24:04.778Z,9.07
2022-11-13T01:26:34.161Z,11.23
2022-11-13T01:29:09.624Z,10.37
2022-11-13T01:34:29.727Z,11.20
2022-11-13T01:37:02.463Z,9.97
2022-11-13T01:39:36.888Z,10.20
2022-11-13T01:42:08.790Z,8.53
2022-11-13T01:44:51.509Z,9.83
2022-11-13T01:47:20.647Z,9.50
2022-11-13T01:49:50.475Z,10.07
2022-11-13T01:52:21.524Z,9.60
2022-11-13T01:54:54.660Z,9.43
2022-11-13T01:57:23.878Z,10.70
2022-11-13T01:59:56.432Z,11.30
2022-11-13T02:02:24.455Z,9.80
2022-11-13T02:04:53.124Z,11.97
2022-11-13T02:07:22.995Z,13.37
2022-11-13T02:09:55.009Z,10.80
2022-11-13T02:12:28.502Z,11.50
2022-11-13T02:14:59.096Z,11.00
2022-11-13T02:17:32.373Z,14.47
2022-11-13T02:20:03.406Z,13.63
2022-11-13T02:22:37.237Z,14.17
2022-11-13T02:25:08.681Z,12.00
2022-11-13T02:27:40.902Z,13.77
2022-11-13T02:30:19.782Z,14.70
2022-11-13T02:32:52.579Z,11.33
2022-11-13T02:35:25.215Z,16.67
2022-11-13T02:37:53.711Z,14.60
2022-11-13T02:40:23.548Z,14.77
2022-11-13T02:42:52.020Z,13.80
2022-11-13T02:45:20.392Z,15.67
2022-11-13T02:47:48.528Z,23.17
2022-11-13T02:50:16.976Z,18.87
2022-11-13T02:52:45.019Z,14.17
2022-11-13T02:55:13.275Z,12.43
2022-11-13T02:57:42.726Z,14.93
2022-11-13T03:00:14.196Z,15.70
2022-11-13T03:02:43.170Z,14.87
2022-11-13T03:05:13.383Z,14.10
2022-11-13T03:07:42.211Z,21.70
2022-11-13T03:10:11.505Z,19.40
2022-11-13T03:12:41.086Z,28.13
2022-11-13T03:15:11.704Z,14.33
2022-11-13T03:17:40.227Z,16.43
2022-11-13T03:20:08.882Z,26.50
2022-11-13T03:22:36.954Z,22.40
2022-11-13T03:25:10.218Z,17.50
2022-11-13T03:27:38.933Z,17.67
2022-11-13T03:30:08.312Z,21.00
2022-11-13T03:32:37.871Z,23.13
2022-11-13T03:35:06.880Z,20.83
2022-11-13T03:37:34.833Z,14.03
2022-11-13T03:40:02.920Z,14.67
2022-11-13T03:42:31.483Z,19.30
2022-11-13T03:44:59.472Z,15.47
2022-11-13T03:47:27.451Z,16.60
2022-11-13T03:49:56.819Z,18.50
2022-11-13T03:52:25.302Z,12.37
2022-11-13T03:54:53.332Z,15.80
2022-11-13T03:57:21.521Z,13.40
2022-11-13T03:59:49.414Z,13.63
2022-11-13T04:02:17.419Z,14.93
2022-11-13T04:04:45.710Z,11.67
2022-11-13T04:07:15.117Z,10.10
2022-11-13T04:09:43.201Z,14.50
2022-11-13T04:12:11.256Z,15.67
2022-11-13T04:14:39.489Z,16.67
2022-11-13T04:17:07.522Z,17.77
2022-11-13T04:19:35.535Z,17.10
2022-11-13T04:22:03.636Z,13.47
2022-11-13T04:24:33.075Z,19.53
2022-11-13T04:27:01.391Z,15.33
2022-11-13T04:29:29.655Z,12.73
2022-11-13T04:31:57.656Z,15.60
2022-11-13T04:34:26.682Z,15.70
2022-11-13T04:36:54.709Z,13.33
2022-11-13T04:39:22.843Z,12.00
2022-11-13T04:42:09.932Z,12.47
2022-11-13T04:44:38.041Z,11.70
2022-11-13T04:47:06.107Z,17.30
2022-11-13T04:49:34.220Z,13.63
2022-11-13T04:52:02.248Z,11.90
2022-11-13T04:54:30.276Z,14.13
2022-11-13T04:56:59.734Z,12.33
2022-11-13T04:59:27.822Z,9.40
2022-11-13T05:01:56.211Z,15.53
2022-11-13T05:04:24.918Z,13.03
2022-11-13T05:06:53.058Z,11.10
2022-11-13T05:09:21.263Z,9.30
2022-11-13T05:11:49.317Z,12.30
2022-11-13T05:14:18.844Z,22.00
2022-11-13T05:16:46.887Z,12.07
2022-11-13T05:19:15.087Z,9.40
2022-11-13T05:21:43.310Z,10.07
2022-11-13T05:24:12.746Z,21.07
2022-11-13T05:26:41.425Z,13.07
2022-11-13T05:29:09.471Z,13.47
2022-11-13T05:31:38.804Z,12.50
2022-11-13T05:34:07.795Z,10.10
2022-11-13T05:36:36.347Z,20.77
2022-11-13T05:39:05.068Z,11.27
2022-11-13T05:41:33.239Z,8.93
2022-11-13T05:44:01.308Z,9.13
2022-11-13T05:46:30.561Z,9.57
2022-11-13T05:49:01.949Z,9.53
2022-11-13T05:51:32.658Z,8.10
2022-11-13T05:54:01.799Z,8.73
2022-11-13T05:56:32.413Z,8.43
2022-11-13T05:59:01.297Z,8.50
2022-11-13T06:01:32.479Z,8.30
2022-11-13T06:04:02.877Z,9.73
2022-11-13T06:06:32.555Z,8.13
2022-11-13T06:09:02.272Z,7.60
2022-11-13T06:11:32.333Z,8.27
2022-11-13T06:14:01.096Z,11.73
2022-11-13T06:16:30.830Z,8.50
2022-11-13T06:19:01.008Z,7.60
2022-11-13T06:21:32.584Z,11.50
2022-11-13T06:24:02.273Z,11.10
2022-11-13T06:26:35.431Z,10.00
2022-11-13T06:29:05.355Z,10.30
2022-11-13T06:31:35.088Z,10.30
2022-11-13T06:34:03.766Z,8.23
2022-11-13T06:36:35.021Z,8.53
2022-11-13T06:39:06.169Z,12.37
2022-11-13T06:41:34.280Z,10.33
2022-11-13T06:44:03.564Z,9.67
2022-11-13T06:46:32.492Z,13.67
2022-11-13T06:49:00.898Z,9.90
2022-11-13T06:51:30.536Z,8.23
2022-11-13T06:54:00.174Z,9.53
2022-11-13T06:56:28.298Z,9.83
2022-11-13T06:58:57.525Z,8.33
2022-11-13T07:01:27.109Z,13.10
2022-11-13T07:03:55.830Z,8.40
2022-11-13T07:06:25.703Z,8.43
2022-11-13T07:08:54.478Z,8.90
2022-11-13T07:11:25.039Z,9.27
2022-11-13T07:13:53.520Z,9.10
2022-11-13T07:16:21.615Z,7.67
2022-11-13T07:18:53.640Z,13.60
2022-11-13T07:21:22.919Z,10.33
2022-11-13T07:23:51.767Z,7.93
2022-11-13T07:26:20.221Z,7.70
2022-11-13T07:28:50.742Z,11.10
2022-11-13T07:31:19.498Z,8.30
2022-11-13T07:33:49.704Z,8.87
2022-11-13T07:36:18.334Z,9.00
2022-11-13T07:38:46.773Z,9.27
2022-11-13T07:41:14.851Z,10.77
2022-11-13T07:43:42.939Z,7.60
2022-11-13T07:46:12.530Z,8.93
2022-11-13T07:48:40.931Z,9.40
2022-11-13T07:51:09.292Z,7.97
2022-11-13T07:53:39.048Z,8.10
2022-11-13T07:56:08.167Z,10.87
2022-11-13T07:58:36.243Z,9.17
2022-11-13T08:01:05.274Z,9.83
2022-11-13T08:03:34.892Z,8.20
2022-11-13T08:06:05.082Z,7.37
2022-11-13T08:08:33.753Z,11.70
2022-11-13T08:11:05.826Z,8.90
2022-11-13T08:13:34.366Z,8.40
2022-11-13T08:16:03.190Z,9.70
2022-11-13T08:18:32.530Z,8.80
2022-11-13T08:21:04.277Z,8.30
2022-11-13T08:23:32.708Z,9.60
2022-11-13T08:26:05.433Z,8.57
2022-11-13T08:28:33.924Z,7.90
2022-11-13T08:31:02.168Z,8.00
2022-11-13T08:33:31.066Z,10.00
2022-11-13T08:36:00.776Z,9.00
2022-11-13T08:38:30.616Z,6.90
2022-11-13T08:41:01.210Z,8.27
2022-11-13T08:43:31.390Z,6.83
2022-11-13T08:46:00.515Z,8.97
2022-11-13T08:48:45.009Z,10.83
2022-11-13T08:51:13.232Z,8.53
2022-11-13T08:53:43.079Z,9.07
2022-11-13T08:56:11.175Z,10.83
2022-11-13T08:58:39.354Z,11.00
2022-11-13T09:01:07.775Z,11.90
2022-11-13T09:03:37.104Z,7.83
2022-11-13T09:06:07.414Z,7.47
2022-11-13T09:08:36.345Z,7.87
2022-11-13T09:11:06.939Z,7.10
2022-11-13T09:13:39.825Z,9.43
2022-11-13T09:16:11.095Z,8.00
2022-11-13T09:18:46.741Z,8.07
2022-11-13T09:21:30.683Z,10.50
2022-11-13T09:24:01.903Z,8.60
2022-11-13T09:26:41.803Z,10.83
2022-11-13T09:29:12.711Z,8.73
2022-11-13T09:31:42.816Z,8.27
2022-11-13T09:34:27.989Z,8.53
2022-11-13T09:36:56.165Z,10.30
2022-11-13T09:39:42.308Z,9.30
2022-11-13T09:42:17.497Z,9.73
2022-11-13T09:44:53.863Z,14.53
2022-11-13T09:47:25.522Z,8.50
2022-11-13T09:50:04.690Z,12.23
2022-11-13T09:52:37.465Z,8.60
2022-11-13T09:55:11.950Z,9.57
2022-11-13T09:57:46.004Z,8.83
2022-11-13T10:00:20.359Z,9.27
2022-11-13T10:02:58.522Z,9.87
2022-11-13T10:05:34.559Z,12.40
2022-11-13T10:08:12.693Z,9.10
2022-11-13T10:10:55.228Z,12.10
2022-11-13T10:13:29.571Z,10.70
2022-11-13T10:16:05.404Z,10.80
2022-11-13T10:18:39.188Z,9.70
2022-11-13T10:21:18.503Z,8.73
2022-11-13T10:23:52.867Z,9.80
2022-11-13T10:26:22.915Z,9.50
2022-11-13T10:29:01.625Z,10.63
2022-11-13T10:31:29.768Z,11.40
2022-11-13T10:33:58.984Z,11.57
2022-11-13T10:36:37.262Z,10.80
2022-11-13T10:39:08.256Z,11.53
2022-11-13T10:41:48.126Z,11.00
2022-11-13T10:44:27.770Z,13.00
2022-11-13T10:47:06.776Z,12.80
2022-11-13T10:49:34.886Z,10.30
2022-11-13T10:52:08.452Z,9.37
2022-11-13T10:54:39.125Z,13.17
2022-11-13T10:57:25.054Z,12.13
2022-11-13T10:59:56.486Z,10.67
2022-11-13T11:02:25.932Z,12.40
2022-11-13T11:05:04.347Z,11.43
2022-11-13T11:07:40.555Z,12.10
2022-11-13T11:10:22.538Z,11.03
2022-11-13T11:12:54.451Z,10.17
2022-11-13T11:15:28.473Z,10.27
2022-11-13T11:18:03.144Z,9.13
2022-11-13T11:20:42.733Z,13.17
2022-11-13T11:23:22.691Z,10.37
2022-11-13T11:25:58.460Z,10.40
2022-11-13T11:28:34.159Z,12.00
2022-11-13T11:31:11.274Z,7.90
2022-11-13T11:33:49.996Z,12.87
2022-11-13T11:36:26.692Z,13.83
2022-11-13T11:39:05.570Z,9.17
2022-11-13T11:41:42.025Z,13.80
2022-11-13T11:44:21.003Z,10.27
2022-11-13T11:46:51.921Z,13.97
2022-11-13T11:49:23.217Z,12.30
2022-11-13T11:52:06.221Z,9.23
2022-11-13T11:54:42.446Z,9.60
2022-11-13T11:57:22.950Z,12.40
2022-11-13T12:00:04.561Z,12.10
2022-11-13T12:03:27.088Z,11.17
2022-11-13T12:06:37.975Z,11.73
2022-11-13T12:09:45.842Z,18.20
2022-11-13T12:12:20.426Z,12.23
2022-11-13T12:15:03.938Z,12.30
2022-11-13T12:17:47.530Z,12.77
2022-11-13T12:20:31.739Z,11.97
2022-11-13T12:23:10.673Z,11.87
2022-11-13T12:25:46.006Z,10.03
2022-11-13T12:28:19.193Z,11.60
2022-11-13T12:30:57.857Z,11.93
2022-11-13T12:33:38.698Z,12.17
2022-11-13T12:36:12.331Z,7.70
2022-11-13T12:38:49.128Z,7.53
2022-11-13T12:41:23.763Z,8.60
2022-11-13T12:44:04.827Z,9.10
2022-11-13T12:46:43.400Z,3.70
2022-11-13T12:49:33.219Z,10.70
2022-11-13T12:52:05.063Z,10.60
2022-11-13T12:54:34.844Z,5.00
2022-11-13T12:57:30.049Z,6.00
2022-11-13T13:00:00.541Z,4.63
2022-11-13T13:02:50.397Z,6.23
2022-11-13T13:05:31.049Z,6.20
2022-11-13T13:08:39.995Z,4.70
2022-11-13T13:11:19.325Z,5.07
2022-11-13T13:14:05.155Z,5.10
2022-11-13T13:16:33.203Z,7.77
2022-11-13T13:19:23.329Z,7.03
2022-11-13T13:21:51.910Z,5.27
2022-11-13T13:25:03.571Z,5.40
2022-11-13T13:27:36.600Z,4.50
2022-11-13T13:30:20.168Z,5.80
2022-11-13T13:33:18.054Z,9.13
2022-11-13T13:36:04.177Z,7.33
2022-11-13T13:39:01.492Z,5.47
2022-11-13T13:41:42.567Z,5.50
2022-11-13T13:44:33.296Z,5.43
2022-11-13T13:47:01.716Z,6.50
2022-11-13T13:49:34.981Z,6.17
2022-11-13T13:52:06.617Z,8.53
2022-11-13T13:54:35.871Z,5.90
2022-11-13T13:57:14.392Z,7.97
2022-11-13T13:59:45.946Z,6.23
2022-11-13T14:02:22.535Z,7.10
2022-11-13T14:05:02.573Z,8.23
2022-11-13T14:07:33.854Z,6.27
2022-11-13T14:10:15.489Z,7.30
2022-11-13T14:12:49.512Z,7.00
2022-11-13T14:19:13.503Z,9.23
2022-11-13T14:21:53.741Z,6.83
2022-11-13T14:24:46.034Z,6.73
2022-11-13T14:27:36.749Z,9.70
2022-11-13T14:30:11.374Z,7.17
2022-11-13T14:32:46.803Z,6.17
2022-11-13T14:35:21.566Z,7.07
2022-11-13T14:37:50.066Z,5.57
2022-11-13T14:40:23.271Z,7.67
2022-11-13T14:42:54.543Z,9.17
2022-11-13T14:45:28.465Z,8.30
2022-11-13T14:48:04.817Z,7.50
2022-11-13T14:50:35.701Z,7.50
2022-11-13T14:53:05.835Z,7.23
2022-11-13T14:55:42.078Z,10.87
2022-11-13T14:58:14.640Z,7.30
2022-11-13T15:00:44.155Z,6.67
2022-11-13T15:03:12.335Z,7.43
2022-11-13T15:05:40.633Z,6.23
2022-11-13T15:08:15.006Z,4.40
2022-11-13T15:10:43.706Z,7.23
2022-11-13T15:13:14.391Z,8.73
2022-11-13T15:15:44.470Z,6.97
2022-11-13T15:18:18.364Z,7.13
2022-11-13T15:20:47.262Z,10.27
2022-11-13T15:23:17.743Z,7.73
2022-11-13T15:25:46.010Z,8.53
2022-11-13T15:28:14.462Z,12.20
2022-11-13T15:30:44.888Z,11.53
2022-11-13T15:33:26.685Z,9.07
2022-11-13T15:35:55.231Z,9.40
2022-11-13T15:39:12.686Z,8.87
2022-11-13T15:42:53.635Z,11.93
2022-11-13T15:45:44.587Z,7.13
2022-11-13T15:48:14.511Z,10.80
2022-11-13T16:04:55.085Z,9.70
2022-11-13T16:07:30.575Z,11.50
2022-11-13T16:09:59.746Z,13.40
2022-11-13T16:12:28.605Z,11.37
2022-11-13T16:14:59.393Z,13.10
2022-11-13T16:17:36.513Z,13.77
2022-11-13T16:20:11.710Z,10.03
2022-11-13T16:22:40.508Z,7.10
2022-11-13T16:25:18.448Z,8.00
2022-11-13T16:27:47.058Z,12.00
2022-11-13T16:30:18.174Z,10.30
2022-11-13T16:32:47.373Z,13.23
2022-11-13T16:35:23.885Z,13.30
2022-11-13T16:37:54.703Z,13.90
2022-11-13T16:40:26.121Z,11.50
2022-11-13T16:42:55.487Z,13.07
2022-11-13T16:45:24.666Z,13.40
2022-11-13T16:47:53.544Z,13.80
2022-11-13T16:50:25.897Z,16.83
2022-11-13T16:52:54.531Z,14.30
2022-11-13T16:55:22.964Z,13.10
2022-11-13T16:57:50.982Z,16.60
2022-11-13T17:01:14.809Z,16.73
2022-11-13T17:03:43.860Z,14.97
2022-11-13T17:06:23.045Z,13.73
2022-11-13T17:08:54.265Z,15.00
2022-11-13T17:11:34.678Z,15.37
2022-11-13T17:14:05.037Z,15.23
2022-11-13T17:16:34.421Z,20.90
2022-11-13T17:19:03.129Z,18.77
2022-11-13T17:21:37.035Z,15.97
2022-11-13T17:24:10.231Z,14.90
2022-11-13T17:26:42.170Z,21.37
2022-11-13T17:29:13.618Z,15.20
2022-11-13T17:31:42.377Z,20.50
2022-11-13T17:34:10.802Z,21.10
2022-11-13T17:36:42.251Z,18.90
2022-11-13T17:39:10.824Z,18.03
2022-11-13T17:41:39.454Z,22.50
2022-11-13T17:44:11.944Z,18.30
2022-11-13T17:46:40.357Z,18.90
2022-11-13T17:49:08.644Z,23.63
2022-11-13T17:51:39.802Z,21.00
2022-11-13T17:54:17.892Z,25.90
2022-11-13T17:56:46.228Z,17.07
2022-11-13T17:59:14.669Z,21.43
2022-11-13T18:01:42.807Z,18.17
2022-11-13T18:04:16.128Z,20.80
2022-11-13T18:06:45.339Z,24.23
2022-11-13T18:09:18.247Z,22.73
2022-11-13T18:11:48.642Z,19.90
2022-11-13T18:14:18.850Z,20.63
2022-11-13T18:16:50.399Z,22.47
2022-11-13T18:19:20.654Z,20.00
2022-11-13T18:21:48.937Z,23.30
2022-11-13T18:24:28.476Z,21.47
2022-11-13T18:27:31.975Z,20.57
2022-11-13T18:30:21.646Z,21.17
2022-11-13T18:32:52.111Z,22.93
2022-11-13T18:35:32.338Z,23.80
2022-11-13T18:38:01.780Z,20.27
2022-11-13T18:40:45.188Z,21.83
2022-11-13T18:43:17.747Z,23.87
2022-11-13T18:46:04.556Z,23.33
2022-11-13T18:48:45.154Z,18.30
2022-11-13T18:51:37.187Z,25.03
2022-11-13T18:54:21.723Z,23.70
2022-11-13T18:57:00.019Z,26.37
2022-11-13T18:59:33.800Z,28.40
2022-11-13T19:02:15.194Z,27.83
2022-11-13T19:05:11.517Z,28.60
2022-11-13T19:07:47.327Z,23.57
2022-11-13T19:10:32.425Z,23.23
2022-11-13T19:13:31.354Z,26.40
2022-11-13T19:16:05.631Z,23.17
2022-11-13T19:18:37.349Z,24.97
2022-11-13T19:21:07.533Z,23.60
2022-11-13T19:23:36.505Z,27.83
2022-11-13T19:26:20.740Z,25.70
2022-11-13T19:29:01.958Z,27.37
2022-11-13T19:31:31.243Z,26.10
2022-11-13T19:34:01.217Z,26.30
2022-11-13T19:36:31.128Z,29.37
2022-11-13T19:39:01.240Z,26.50
2022-11-13T19:41:34.446Z,27.13
2022-11-13T19:44:06.353Z,24.87
2022-11-13T19:46:37.290Z,24.10
2022-11-13T19:49:08.267Z,24.80
2022-11-13T19:51:45.714Z,25.30
2022-11-13T19:54:14.027Z,29.83
2022-11-13T19:56:42.299Z,25.33
2022-11-13T19:59:12.606Z,21.97
2022-11-13T20:01:41.348Z,26.13
2022-11-13T20:04:14.075Z,26.50
2022-11-13T20:06:42.178Z,28.23
2022-11-13T20:09:10.862Z,29.07
2022-11-13T20:11:38.997Z,26.10
2022-11-13T20:14:16.007Z,25.60
2022-11-13T20:16:45.645Z,23.20
2022-11-13T20:19:18.324Z,22.63
2022-11-13T20:21:46.829Z,24.13
2022-11-13T20:24:22.988Z,24.50
2022-11-13T20:26:58.105Z,25.07
2022-11-13T20:29:38.868Z,24.73
2022-11-13T20:32:24.313Z,22.13
2022-11-13T20:34:57.020Z,22.33
2022-11-13T20:37:29.315Z,26.17
2022-11-13T20:39:58.141Z,22.87
2022-11-13T20:42:29.351Z,25.47
2022-11-13T20:45:01.334Z,23.53
2022-11-13T20:47:29.880Z,22.63
2022-11-13T20:49:58.014Z,28.97
2022-11-13T20:52:26.664Z,25.67
2022-11-13T20:54:55.087Z,24.23
2022-11-13T20:57:23.339Z,23.93
2022-11-13T20:59:51.394Z,22.73
2022-11-13T21:02:20.937Z,28.60
2022-11-13T21:04:48.964Z,26.20
2022-11-13T21:07:17.051Z,22.33
2022-11-13T21:09:48.945Z,26.03
2022-11-13T21:12:18.193Z,24.40
2022-11-13T21:14:46.303Z,23.60
2022-11-13T21:17:14.839Z,27.60
2022-11-13T21:19:44.257Z,26.67
2022-11-13T21:22:12.480Z,28.40
2022-11-13T21:24:40.506Z,27.80
2022-11-13T21:27:08.869Z,29.17
2022-11-13T21:29:37.022Z,25.40
2022-11-13T21:32:05.206Z,23.43
2022-11-13T21:34:33.246Z,25.40
2022-11-13T21:37:02.685Z,26.10
2022-11-13T21:39:31.135Z,23.97
2022-11-13T21:41:59.321Z,24.33
2022-11-13T21:44:27.352Z,26.03
2022-11-13T21:46:55.770Z,22.80
2022-11-13T21:49:24.006Z,26.30
2022-11-13T21:51:52.864Z,29.03
2022-11-13T21:54:23.318Z,25.50
2022-11-13T21:56:53.132Z,26.30
2022-11-13T21:59:22.494Z,23.70
2022-11-13T22:01:50.636Z,26.73
2022-11-13T22:04:18.629Z,26.00
2022-11-13T22:06:49.629Z,27.93
2022-11-13T22:09:19.660Z,30.07
2022-11-13T22:11:49.722Z,28.00
2022-11-13T22:14:19.906Z,26.47
2022-11-13T22:16:48.905Z,29.90
2022-11-13T22:19:21.385Z,26.50
2022-11-13T22:21:54.151Z,30.93
2022-11-13T22:24:22.222Z,28.50
2022-11-13T22:30:38.502Z,28.67
2022-11-13T22:33:06.527Z,30.03
2022-11-13T22:35:34.399Z,27.10
2022-11-13T22:38:03.355Z,29.63
2022-11-13T22:40:31.292Z,30.23
2022-11-13T22:42:59.248Z,30.93
2022-11-13T22:45:27.152Z,28.87
2022-11-13T22:47:56.424Z,28.67
2022-11-13T22:50:24.356Z,26.00
2022-11-13T22:52:53.330Z,27.60
2022-11-13T22:55:21.244Z,30.83
2022-11-13T22:57:49.168Z,26.50
2022-11-13T23:00:17.677Z,26.63
2022-11-13T23:02:47.377Z,30.57
2022-11-13T23:05:17.080Z,33.60
2022-11-13T23:07:44.970Z,27.70
2022-11-13T23:10:19.121Z,29.67
2022-11-13T23:12:47.133Z,29.13
2022-11-13T23:15:15.401Z,31.83
2022-11-13T23:17:43.499Z,26.27
2022-11-13T23:20:20.761Z,26.73
2022-11-13T23:22:56.123Z,30.57
2022-11-13T23:25:24.438Z,29.80
2022-11-13T23:27:52.536Z,30.03
2022-11-13T23:30:23.865Z,25.87
2022-11-13T23:32:55.862Z,24.40
2022-11-13T23:35:26.012Z,32.50
2022-11-13T23:37:54.323Z,28.10
2022-11-13T23:40:23.692Z,26.70
2022-11-13T23:42:55.890Z,26.93
2022-11-13T23:45:24.595Z,27.80
2022-11-13T23:47:52.663Z,28.37
2022-11-13T23:50:20.926Z,28.47
2022-11-13T23:52:50.677Z,31.97
2022-11-13T23:55:19.161Z,25.33
2022-11-13T23:57:47.207Z,26.03
